Morganton, North Carolina
Current Conditions -  °F | °C
As of 7:15 AM on Sunday 23 Nov 2014 (Local Time) from KMRN Reporting Station
Overcast Overcast  
Wind Chill: 43°   Ceiling: 2400
Heat Index: 43°   Visibility: 10mi
Dew Point: 31°   Wind: 0mph
Humidity: 64%   Direction: NA
Pressure: 30.27"   Gusts: NA
Location:  35.75°N, 81.68°W
Report Text: KMRN 231215Z AUTO 00000KT 10SM OVC024 06/00 A3027 RMK AO2 T00601004
Loading
Personal Weather Stations






























Interactive Weather Map New forecast layout! Learn more

10-Day Weather Forecast

Advertisements
Track Severe Weather on mobile